Date,TemperatureHighF,TemperatureAvgF,TemperatureLowF,DewpointHighF,DewpointAvgF,DewpointLowF,HumidityHigh,HumidityAvg,HumidityLow,PressureMaxIn,PressureMinIn,WindSpeedMaxMPH,WindSpeedAvgMPH,GustSpeedMaxMPH,PrecipitationSumIn
2012-4-11,43,39,35,35,33,31,84,80,74,0.00,40.00,14,9,19,0.00
2012-4-12,43,34,25,34,30,24,96,83,66,0.00,40.00,9,4,11,0.00
2012-4-13,49,36,26,37,30,25,96,80,52,0.00,40.00,8,2,12,0.00
2012-4-14,68,55,41,47,40,32,71,58,34,0.00,40.00,12,6,23,0.00
2012-4-15,68,55,45,63,48,-100,97,83,61,0.00,40.00,10,-17,26,0.00
2012-4-16,67,56,33,63,49,22,95,79,60,0.00,40.00,37,15,52,0.00
2012-4-17,36,32,29,26,23,20,87,69,60,0.00,40.00,37,14,48,0.00
2012-4-18,58,52,45,45,41,33,84,68,43,0.00,40.00,13,8,28,0.00
2012-4-19,45,41,38,41,37,33,96,84,70,0.00,40.00,14,8,19,0.00
2012-4-20,44,38,35,38,36,33,97,91,76,0.00,40.00,19,9,27,0.00
2012-4-21,45,36,28,35,30,22,98,81,44,0.00,40.00,13,4,15,0.00
2012-4-22,49,37,26,36,28,-100,95,76,31,0.00,40.00,17,5,21,0.00
2012-4-23,47,41,34,36,33,29,92,72,51,0.00,40.00,24,13,30,0.00
2012-4-24,49,44,41,37,33,31,77,67,54,0.00,40.00,27,18,33,0.00
2012-4-25,51,40,29,38,30,23,96,72,33,0.00,40.00,11,4,15,0.00
2012-4-26,43,40,37,41,29,-100,99,78,58,0.00,40.00,36,17,44,0.00
2012-4-27,45,40,31,33,27,17,87,62,34,0.00,40.00,25,12,29,0.00
2012-4-28,48,37,27,37,28,21,91,72,34,0.00,40.00,19,5,26,0.00
2012-4-29,51,38,27,36,27,-100,94,70,30,0.00,40.00,7,3,13,0.00
2012-4-30,50,46,39,42,35,11,94,69,22,0.00,40.00,8,3,15,0.00
2012-5-1,53,47,41,45,42,39,96,82,67,0.00,40.00,11,4,19,0.00
2012-5-2,59,52,40,57,45,-100,99,90,81,0.00,40.00,10,4,21,0.00
2012-5-3,65,54,45,63,-26,-100,99,45,86,0.00,40.00,11,3,21,0.00
2012-5-4,55,48,44,45,-53,-100,98,26,63,0.00,40.00,16,6,21,0.00
2012-5-5,60,50,45,44,37,31,98,62,35,0.00,40.00,11,4,20,0.00
2012-5-6,61,50,44,49,34,-100,99,62,29,0.00,40.00,7,3,19,0.00
2012-5-7,62,52,47,48,17,-100,99,62,47,0.00,40.00,7,2,13,0.00
2012-5-8,56,48,42,48,41,-100,98,84,71,0.00,40.00,11,4,18,0.00
2012-5-9,51,45,38,45,-3,-100,99,58,52,0.00,40.00,15,6,19,0.00
2012-5-10,61,48,37,42,37,28,96,69,30,0.00,40.00,14,7,21,0.00
2012-5-11,68,54,37,46,38,33,97,60,29,0.00,40.00,13,5,22,0.00
2012-5-12,65,56,44,46,41,30,81,59,33,0.00,40.00,11,6,31,0.00
2012-5-13,67,49,34,43,36,-100,98,68,23,0.00,40.00,10,4,14,0.00
2012-5-14,78,62,45,43,37,34,79,43,22,0.00,40.00,13,7,24,0.00
2012-5-15,81,62,46,49,42,36,81,52,25,0.00,40.00,24,10,39,0.00
2012-5-16,53,47,37,42,38,34,91,72,50,0.00,40.00,19,9,25,0.00
2012-5-17,61,47,31,43,36,30,98,70,31,0.00,40.00,7,4,12,0.00
2012-5-18,83,62,49,45,41,38,84,51,22,0.00,40.00,13,5,22,0.00
2012-5-19,83,64,49,58,50,43,88,63,33,0.00,40.00,9,4,19,0.00
2012-5-20,92,76,59,60,52,-100,87,47,28,0.00,40.00,15,6,26,0.00
2012-5-21,67,55,48,63,49,44,98,82,59,0.00,40.00,16,8,23,0.00
2012-5-22,61,52,40,50,45,40,97,77,50,0.00,40.00,11,4,39,0.00
2012-5-23,73,58,47,56,48,43,94,73,43,0.00,40.00,9,3,17,0.00
2012-5-24,88,73,51,56,52,47,91,52,25,0.00,40.00,12,6,30,0.00
2012-5-25,78,68,54,59,51,45,83,57,38,0.00,40.00,21,10,34,0.00
2012-5-26,66,56,45,56,48,44,97,75,53,0.00,40.00,8,2,13,0.00
2012-5-27,75,62,55,65,49,-100,99,73,47,0.00,40.00,18,4,33,0.00
2012-5-28,89,74,58,67,49,-100,99,61,39,0.00,40.00,21,6,32,0.00
2012-5-29,71,62,50,61,7,-100,99,49,42,0.00,40.00,17,8,30,0.00
2012-5-30,54,50,47,52,43,38,96,79,65,0.00,40.00,23,13,26,0.00
2012-5-31,57,50,44,46,40,36,90,70,47,0.00,40.00,20,6,24,0.00
2012-6-1,54,52,49,49,45,39,96,79,60,0.00,40.00,34,12,40,0.00
2012-6-2,52,50,48,50,49,47,97,95,91,0.00,40.00,34,18,42,0.00
2012-6-3,60,55,50,53,49,-100,94,83,73,0.00,40.00,15,7,20,0.00
2012-6-4,65,56,45,55,23,-100,99,65,62,0.00,40.00,9,3,12,0.00
2012-6-5,64,58,47,54,50,-100,99,80,61,0.00,40.00,9,3,14,0.00
2012-6-6,68,57,45,53,34,-100,99,67,49,0.00,40.00,11,4,17,0.00
2012-6-7,72,62,47,55,43,-100,99,64,39,0.00,40.00,12,6,20,0.00
2012-6-8,79,64,52,64,31,-100,99,60,48,0.00,40.00,23,5,32,0.00
2012-6-9,85,72,61,65,36,-100,99,57,41,0.00,40.00,23,6,32,0.00
2012-6-10,89,76,66,65,57,-100,82,56,35,0.00,40.00,11,6,26,0.00
2012-6-11,88,74,64,71,58,-100,99,67,43,0.00,40.00,17,5,30,0.00
2012-6-12,71,60,55,68,51,38,98,72,51,0.00,40.00,29,16,34,0.00
2012-6-13,63,54,42,50,44,39,96,70,42,0.00,40.00,18,6,21,0.00
2012-6-14,75,61,44,57,46,39,92,61,34,0.00,40.00,11,4,16,0.00
2012-6-15,87,73,62,59,51,43,77,48,32,0.00,40.00,11,6,24,0.00
2012-6-16,90,76,60,70,58,53,98,57,33,0.00,40.00,12,5,21,0.00
2012-6-17,75,68,62,68,48,-100,99,70,44,0.00,40.00,14,7,23,0.00
2012-6-18,84,69,63,71,32,-100,97,61,57,0.00,40.00,33,6,49,0.00
2012-6-19,82,70,64,73,8,-100,99,56,67,0.00,40.00,17,5,28,0.00
2012-6-20,91,84,73,69,68,66,81,60,47,0.00,40.00,14,9,31,0.00
2012-6-21,81,71,60,68,62,59,96,75,56,0.00,40.00,15,8,24,0.00
2012-6-22,70,64,55,59,34,-100,98,63,56,0.00,40.00,12,5,19,0.00
2012-6-23,73,63,52,60,33,-100,99,63,48,0.00,40.00,9,4,13,0.00
2012-6-24,70,64,61,64,59,49,98,83,58,0.00,40.00,26,9,32,0.00
2012-6-25,70,63,55,56,53,49,93,72,52,0.00,40.00,25,10,31,0.00
2012-6-26,71,60,50,55,51,47,99,74,42,0.00,40.00,10,4,15,0.00
2012-6-27,85,67,52,64,55,50,93,68,35,0.00,40.00,10,4,21,0.00
2012-6-28,81,70,62,68,63,56,91,78,59,0.00,40.00,13,3,18,0.00
2012-6-29,82,73,66,66,59,54,95,65,39,0.00,40.00,15,9,28,0.00
2012-6-30,80,73,65,64,60,57,88,65,47,0.00,40.00,12,6,19,0.00
2012-7-1,80,69,57,66,61,57,98,78,50,0.00,40.00,9,3,11,0.00
2012-7-2,83,71,59,69,61,52,97,74,35,0.00,40.00,6,3,11,0.00
2012-7-3,83,75,68,69,58,-100,99,71,54,0.00,40.00,21,6,31,0.00
2012-7-4,84,74,67,71,68,66,98,82,58,0.00,40.00,6,2,11,0.00
2012-7-5,88,76,70,72,69,67,97,80,58,0.00,40.00,23,4,34,0.00
2012-7-6,83,73,63,71,32,-100,99,59,45,0.00,40.00,11,4,15,0.00
2012-7-7,75,70,63,69,60,-100,99,79,61,0.00,40.00,33,8,43,0.00
2012-7-8,77,71,62,66,62,56,93,74,50,0.00,40.00,17,7,19,0.00
2012-7-9,76,68,58,65,46,-100,99,67,50,0.00,40.00,20,7,24,0.00
2012-7-10,75,66,54,61,57,53,97,74,52,0.00,40.00,10,5,13,0.00
2012-7-11,80,67,54,65,53,-100,99,73,40,0.00,40.00,12,5,16,0.00
2012-7-12,81,69,58,66,59,55,96,73,41,0.00,40.00,11,4,14,0.00
2012-7-13,85,69,56,68,59,54,96,73,41,0.00,40.00,6,3,13,0.00
2012-7-14,87,76,68,71,66,62,87,72,50,0.00,40.00,8,4,19,0.00
2012-7-15,80,73,65,72,36,-100,99,68,72,0.00,40.00,16,5,26,0.00
2012-7-16,89,78,67,72,12,-100,98,42,50,0.00,40.00,10,4,21,0.00
2012-7-17,85,77,71,72,68,65,88,74,51,0.00,40.00,21,10,34,0.00
2012-7-18,79,71,60,65,62,58,98,74,54,0.00,40.00,18,6,24,0.00
2012-7-19,71,67,57,65,59,53,97,76,58,0.00,40.00,7,-4,50,0.00
2012-7-20,77,66,53,63,38,-100,99,63,52,0.00,40.00,12,-3,15,0.00
2012-7-21,79,70,60,70,63,57,98,81,65,0.00,40.00,14,6,27,0.00
2012-7-22,82,70,58,67,21,-100,99,54,48,0.00,40.00,7,3,11,0.00
2012-7-23,85,78,69,73,69,65,94,75,60,0.00,40.00,20,8,30,0.00
2012-7-24,78,72,61,67,60,51,91,65,47,0.00,40.00,21,8,32,0.00
2012-7-25,69,63,56,67,38,-100,99,78,56,0.00,40.00,12,4,31,0.00
2012-7-26,74,69,62,69,26,-100,99,66,70,0.00,40.00,18,5,21,0.00
2012-7-27,75,67,60,66,20,-100,99,60,67,0.00,40.00,8,3,13,0.00
2012-7-28,77,67,55,65,13,-100,99,52,59,0.00,40.00,10,4,15,0.00
2012-7-29,79,67,54,67,12,-100,99,47,38,0.00,40.00,14,5,19,0.00
2012-7-30,86,72,63,70,63,-100,99,76,48,0.00,40.00,14,-3,25,0.00
2012-7-31,74,71,67,69,60,-100,99,78,70,0.00,40.00,23,13,26,0.00
2012-8-1,79,71,56,68,61,-100,96,72,58,0.00,40.00,15,-3,21,0.00
2012-8-2,80,74,67,72,68,61,97,82,64,0.00,40.00,13,7,23,0.00
2012-8-3,82,73,63,69,66,62,97,79,62,0.00,40.00,19,5,31,0.00
2012-8-4,89,76,66,74,68,62,94,76,52,0.00,40.00,13,5,21,0.00
2012-8-5,74,71,60,73,59,46,95,67,45,0.00,40.00,29,17,38,0.00
2012-8-6,75,61,54,60,54,49,93,78,51,0.00,40.00,8,5,14,0.00
2012-8-7,78,72,67,67,64,58,91,75,63,0.00,40.00,24,11,30,0.00
2012-8-8,74,69,59,62,59,55,93,71,56,0.00,40.00,18,7,23,0.00
2012-8-9,73,66,60,63,51,-100,99,71,52,0.00,40.00,10,3,19,0.00
2012-8-10,72,66,62,57,54,50,80,64,51,0.00,40.00,33,13,40,0.00
2012-8-11,76,68,62,62,58,54,83,70,59,0.00,40.00,28,13,34,0.00
2012-8-12,75,68,59,63,59,56,90,72,57,0.00,40.00,19,9,23,0.00
2012-8-13,75,66,60,62,59,55,95,79,51,0.00,40.00,11,4,15,0.00
2012-8-14,66,60,59,63,59,58,99,97,90,0.00,40.00,6,4,13,0.00
2012-8-29,76,72,58,62,59,56,93,64,51,0.00,40.00,11,6,16,0.00
2012-8-30,90,77,62,65,61,57,95,60,39,0.00,40.00,19,9,33,0.00
2012-8-31,81,75,71,68,63,57,91,68,53,0.00,40.00,18,10,36,0.00
2012-9-1,76,68,56,62,58,54,96,72,50,0.00,40.00,19,8,23,0.00
2012-9-2,82,68,52,61,55,52,98,69,36,0.00,40.00,11,4,20,0.00
2012-9-3,80,68,55,69,60,52,99,76,49,0.00,40.00,27,4,34,0.00
2012-9-4,77,70,62,69,11,-100,99,57,70,0.00,40.00,14,4,17,0.00
2012-9-5,81,69,59,68,6,-100,99,47,49,0.00,40.00,24,7,34,0.00
2012-9-6,75,65,56,64,32,-100,99,63,40,0.00,40.00,12,6,19,0.00
2012-9-7,68,62,56,63,51,-100,99,84,71,0.00,40.00,26,6,30,0.00
2012-9-8,66,63,60,56,51,44,87,66,50,0.00,40.00,29,18,38,0.00
2012-9-9,68,63,56,51,47,43,81,57,44,0.00,40.00,20,11,24,0.00
2012-9-10,72,60,46,58,51,45,98,73,46,0.00,40.00,14,6,20,0.00
2012-9-11,81,69,58,58,55,52,81,62,40,0.00,40.00,14,8,27,0.00
2012-9-12,79,72,68,68,60,54,93,68,50,0.00,40.00,16,10,30,0.00
2012-9-13,68,61,54,63,53,47,96,74,57,0.00,40.00,20,7,27,0.00
2012-9-14,67,60,50,53,49,-100,99,73,48,0.00,40.00,26,13,31,0.00
2012-9-15,66,58,49,51,48,42,92,70,49,0.00,40.00,19,6,24,0.00
2012-9-16,77,64,48,57,49,43,93,62,34,0.00,40.00,19,7,30,0.00
2012-9-17,70,64,61,61,55,48,93,73,54,0.00,40.00,22,8,28,0.00
2012-9-27,59,53,41,45,42,38,95,68,52,0.00,40.00,11,6,14,0.00
2012-9-28,62,46,36,50,42,35,99,88,57,0.00,40.00,9,4,16,0.00
2012-9-29,65,52,42,52,46,42,98,85,52,0.00,40.00,14,4,16,0.00
2012-9-30,61,51,41,48,44,39,98,78,47,0.00,40.00,13,4,15,0.00
2012-10-1,63,50,38,51,45,38,99,84,52,0.00,40.00,14,5,18,0.00
2012-10-2,62,50,43,52,48,43,98,92,69,0.00,40.00,11,4,13,0.00
2012-10-3,67,52,39,59,48,-100,99,90,54,0.00,40.00,11,2,13,0.00
2012-10-4,71,63,58,60,-5,-100,99,44,57,0.00,40.00,16,6,30,0.00
2012-10-5,60,50,47,45,37,32,67,61,51,0.00,40.00,32,15,40,0.00
2012-10-6,48,46,43,40,36,29,82,69,49,0.00,40.00,33,24,44,0.00
2012-10-7,45,41,36,40,36,27,97,85,52,0.00,40.00,22,8,32,0.00
2012-10-8,57,47,37,35,33,30,92,61,38,0.00,40.00,14,8,30,0.00
2012-10-9,57,51,44,49,41,30,92,71,45,0.00,40.00,27,9,44,0.00
2012-10-10,48,45,43,40,35,25,87,69,46,0.00,40.00,38,26,49,0.00
2012-10-11,49,44,39,43,35,25,96,72,45,0.00,40.00,37,18,47,0.00
2012-10-12,48,42,34,37,31,24,91,67,39,0.00,40.00,35,10,43,0.00
2012-10-13,50,42,33,48,22,-100,99,76,61,0.00,40.00,10,5,19,0.00
2012-10-14,53,51,48,52,-23,-100,99,50,93,0.00,40.00,39,8,48,0.00
2012-10-15,48,47,45,47,41,34,95,80,66,0.00,40.00,42,29,52,0.00
2012-10-16,57,46,34,45,39,33,98,79,59,0.00,40.00,14,5,20,0.00
2012-10-17,75,61,52,56,48,40,89,64,42,0.00,40.00,11,6,24,0.00
2012-10-18,63,55,46,55,50,40,97,82,67,0.00,40.00,14,7,29,0.00
2012-10-19,52,47,43,46,42,39,98,82,67,0.00,40.00,8,3,19,0.00
2012-10-20,58,50,42,49,17,-100,99,67,61,0.00,40.00,13,6,17,0.00
2012-10-21,58,50,42,51,17,-100,99,66,58,0.00,40.00,13,6,19,0.00
2012-10-22,61,51,41,54,47,41,99,87,65,0.00,40.00,7,3,16,0.00
2012-10-23,64,56,53,52,50,48,89,81,64,0.00,40.00,12,6,24,0.00
2012-10-24,71,60,53,61,56,50,97,86,66,0.00,40.00,10,4,16,0.00
2012-10-25,79,70,52,62,60,49,97,71,48,0.00,40.00,24,9,33,0.00
2012-10-26,51,45,43,49,35,29,96,67,53,0.00,40.00,33,17,40,0.00
2012-10-27,46,43,40,34,29,25,69,58,49,0.00,40.00,19,9,24,0.00
2012-10-28,46,43,40,34,29,24,71,58,43,0.00,40.00,24,14,33,0.00
2012-10-29,45,42,40,34,28,24,69,56,46,0.00,40.00,42,24,52,0.00
2012-10-30,43,40,38,38,34,25,91,81,50,0.00,40.00,44,36,54,0.00
2012-10-31,43,41,38,40,37,35,91,85,76,0.00,40.00,34,30,44,0.00
2012-11-1,45,42,39,40,35,31,92,78,58,0.00,40.00,37,29,44,0.00
2012-11-2,40,38,36,37,33,30,90,80,70,0.00,40.00,34,27,43,0.00
2012-11-3,38,36,34,33,30,27,93,78,69,0.00,40.00,24,10,37,0.00
2012-11-4,40,37,34,31,29,25,77,72,66,0.00,40.00,18,9,24,0.00
2012-11-5,36,32,27,28,23,19,80,68,51,0.00,40.00,9,3,15,0.00
2012-11-6,40,35,26,28,25,22,84,67,52,0.00,40.00,11,5,19,0.00
2012-11-7,47,37,30,31,28,26,91,70,48,0.00,40.00,6,3,13,0.00
2012-11-8,45,41,33,37,33,29,86,73,67,0.00,40.00,9,5,18,0.00
2012-11-9,49,46,44,42,40,38,87,80,70,0.00,40.00,10,5,16,0.00
2012-11-10,50,45,44,47,43,40,97,90,80,0.00,40.00,11,5,22,0.00
2012-11-11,69,61,48,54,50,46,98,69,52,0.00,40.00,19,8,37,0.00
2012-11-12,53,38,29,52,32,17,98,79,54,0.00,40.00,28,12,46,0.00
2012-11-13,39,34,27,29,24,18,90,68,55,0.00,40.00,26,11,37,0.00
2012-11-14,41,36,29,28,25,-100,87,66,57,0.00,40.00,10,6,23,0.00
2012-11-15,49,40,35,34,29,24,89,65,52,0.00,40.00,11,7,24,0.00
2012-11-16,44,38,28,38,29,24,89,71,57,0.00,40.00,20,8,25,0.00
2012-11-17,47,34,27,38,32,24,97,92,68,0.00,40.00,6,3,14,0.00
2012-11-18,58,45,31,34,32,28,97,63,34,0.00,40.00,10,5,20,0.00
2012-11-19,50,45,41,35,34,32,74,64,52,0.00,40.00,8,6,21,0.00
2012-11-20,52,47,42,45,41,34,97,79,58,0.00,40.00,9,3,14,0.00
2012-11-21,55,49,45,45,42,37,96,79,61,0.00,40.00,13,5,24,0.00
2012-11-22,66,57,49,46,39,36,72,53,34,0.00,40.00,18,10,34,0.00
2012-11-23,58,40,33,48,33,27,95,78,67,0.00,40.00,49,28,60,0.00
2012-11-24,35,32,30,27,23,20,76,69,62,0.00,40.00,38,22,48,0.00
2012-11-25,36,31,27,31,26,21,98,81,65,0.00,40.00,33,16,42,0.00
2012-11-26,32,31,29,24,22,19,76,69,63,0.00,40.00,29,23,39,0.00
2012-11-27,33,31,28,27,19,16,80,62,51,0.00,40.00,20,8,33,0.00
2012-11-28,36,32,29,31,23,16,98,71,56,0.00,40.00,29,17,37,0.00
2012-11-29,39,34,28,30,26,20,83,75,60,0.00,40.00,29,11,37,0.00
2012-11-30,32,28,26,29,24,19,93,82,72,0.00,40.00,11,6,26,0.00
2012-12-1,44,37,32,43,33,29,98,86,74,0.00,40.00,11,5,23,0.00
2012-12-2,49,44,40,45,5,-100,99,67,76,0.00,40.00,21,10,24,0.00
2012-12-3,63,49,39,58,46,36,95,88,76,0.00,40.00,18,7,30,0.00
2012-12-4,63,44,32,59,36,20,88,72,59,0.00,40.00,32,16,44,0.00
2012-12-5,33,29,22,26,21,18,92,73,61,0.00,40.00,33,15,42,0.00
2012-12-6,39,33,25,33,22,-100,86,68,58,0.00,40.00,12,7,30,0.00
2012-12-7,43,38,34,38,30,23,86,72,63,0.00,40.00,20,10,25,0.00
2012-12-8,35,33,30,29,25,20,90,76,59,0.00,40.00,21,8,28,0.00
2012-12-9,34,30,26,28,24,20,94,79,62,0.00,40.00,14,5,27,0.00
2012-12-10,30,28,27,26,22,19,90,78,71,0.00,40.00,25,14,32,0.00
2012-12-11,33,27,22,29,21,16,97,78,57,0.00,40.00,14,6,32,0.00
2012-12-12,38,32,29,29,23,18,87,71,58,0.00,40.00,21,9,32,0.00
2012-12-13,46,41,38,32,29,28,74,63,51,0.00,40.00,19,10,30,0.00
2012-12-14,40,34,29,34,27,24,86,77,64,0.00,40.00,20,9,25,0.00
2012-12-15,40,35,29,36,31,25,96,86,72,0.00,40.00,9,5,20,0.00
2012-12-16,45,41,37,41,-34,-100,99,47,95,0.00,40.00,9,3,15,0.00
2012-12-17,41,39,34,41,35,31,98,86,74,0.00,40.00,18,10,25,0.00
2012-12-18,37,34,33,35,33,32,99,95,87,0.00,40.00,10,2,13,0.00
2012-12-19,40,34,30,36,29,-100,99,90,69,0.00,40.00,10,3,20,0.00
2012-12-20,35,33,29,34,28,-100,99,93,80,0.00,40.00,18,7,37,0.00
2012-12-21,33,31,28,29,18,-100,99,78,75,0.00,40.00,46,32,59,0.00
2012-12-22,34,30,29,26,24,21,85,77,59,0.00,40.00,33,19,43,0.00
2012-12-23,34,29,27,27,21,18,82,71,62,0.00,40.00,32,21,40,0.00
2012-12-24,29,27,26,25,22,19,93,80,68,0.00,40.00,19,5,24,0.00
2012-12-25,29,28,27,21,19,15,73,67,57,0.00,40.00,23,12,28,0.00
2012-12-26,27,25,22,20,17,14,78,71,64,0.00,40.00,15,9,26,0.00
2012-12-27,29,24,21,21,17,13,78,73,62,0.00,40.00,17,10,24,0.00
2012-12-28,28,24,22,21,19,17,85,79,70,0.00,40.00,11,4,18,0.00
2012-12-29,30,26,22,22,20,17,85,78,68,0.00,40.00,20,8,26,0.00
2012-12-30,30,28,26,24,21,17,92,75,59,0.00,40.00,19,8,30,0.00
2012-12-31,34,28,22,29,22,13,89,77,67,0.00,40.00,30,18,39,0.00
2013-1-1,25,23,21,18,13,9,80,66,58,0.00,40.00,26,14,32,0.00